createdAt,value
2018-11-28T00:00:39.811Z,17.63
2018-11-28T00:03:43.461Z,19.80
2018-11-28T00:06:47.009Z,17.97
2018-11-28T00:09:50.490Z,18.47
2018-11-28T00:12:54.224Z,18.83
2018-11-28T00:15:57.719Z,18.30
2018-11-28T00:19:01.334Z,19.33
2018-11-28T00:22:04.930Z,19.07
2018-11-28T00:25:09.225Z,18.07
2018-11-28T00:28:12.844Z,19.07
2018-11-28T00:31:16.430Z,19.77
2018-11-28T00:34:20.069Z,18.57
2018-11-28T00:37:23.672Z,18.60
2018-11-28T00:40:27.288Z,19.30
2018-11-28T00:43:30.717Z,19.20
2018-11-28T00:46:34.180Z,19.90
2018-11-28T00:49:38.782Z,18.40
2018-11-28T00:52:42.385Z,18.93
2018-11-28T00:55:48.482Z,19.20
2018-11-28T00:58:49.740Z,18.10
2018-11-28T01:01:53.348Z,18.67
2018-11-28T01:04:56.945Z,19.13
2018-11-28T01:08:00.468Z,18.90
2018-11-28T01:11:04.007Z,18.23
2018-11-28T01:14:07.517Z,20.57
2018-11-28T01:17:11.028Z,19.27
2018-11-28T01:20:15.989Z,19.37
2018-11-28T01:23:19.516Z,18.53
2018-11-28T01:26:23.059Z,18.47
2018-11-28T01:29:26.555Z,19.67
2018-11-28T01:32:29.971Z,19.00
2018-11-28T01:35:33.328Z,18.70
2018-11-28T01:38:36.842Z,19.17
2018-11-28T01:41:40.378Z,19.30
2018-11-28T01:44:43.976Z,18.60
2018-11-28T01:47:47.487Z,18.77
2018-11-28T01:50:50.937Z,19.27
2018-11-28T01:53:54.453Z,18.60
2018-11-28T01:56:57.990Z,18.23
2018-11-28T02:00:01.459Z,18.63
2018-11-28T02:03:04.935Z,19.17
2018-11-28T02:06:08.503Z,19.13
2018-11-28T02:09:11.947Z,17.67
2018-11-28T02:12:15.481Z,18.30
2018-11-28T02:15:20.135Z,18.47
2018-11-28T02:18:23.660Z,17.83
2018-11-28T02:21:27.164Z,18.33
2018-11-28T02:24:30.491Z,19.27
2018-11-28T02:27:34.028Z,18.83
2018-11-28T02:30:37.550Z,19.20
2018-11-28T02:33:41.174Z,19.53
2018-11-28T02:36:44.799Z,19.47
2018-11-28T02:39:48.317Z,19.13
2018-11-28T02:42:51.888Z,19.03
2018-11-28T02:46:06.825Z,19.33
2018-11-28T02:49:10.432Z,18.93
2018-11-28T02:52:14.045Z,19.20
2018-11-28T02:55:18.566Z,18.13
2018-11-28T02:58:22.071Z,19.13
2018-11-28T03:01:25.646Z,18.83
2018-11-28T03:04:29.248Z,18.47
2018-11-28T03:07:32.886Z,18.90
2018-11-28T03:10:36.521Z,20.37
2018-11-28T03:13:40.015Z,18.70
2018-11-28T03:16:43.695Z,17.67
2018-11-28T03:19:48.269Z,19.27
2018-11-28T03:22:55.557Z,18.83
2018-11-28T03:25:59.231Z,17.60
2018-11-28T03:29:03.103Z,18.43
2018-11-28T03:32:06.817Z,19.77
2018-11-28T03:35:13.711Z,19.37
2018-11-28T03:38:17.376Z,18.37
2018-11-28T03:41:21.835Z,18.23
2018-11-28T03:44:25.454Z,18.07
2018-11-28T03:47:28.936Z,18.23
2018-11-28T03:50:32.503Z,19.33
2018-11-28T03:53:36.138Z,18.20
2018-11-28T03:56:39.775Z,18.60
2018-11-28T03:59:43.326Z,19.33
2018-11-28T04:02:47.017Z,18.60
2018-11-28T04:05:50.773Z,18.00
2018-11-28T04:08:54.493Z,18.60
2018-11-28T04:11:58.066Z,18.47
2018-11-28T04:15:01.586Z,18.53
2018-11-28T04:18:05.432Z,18.70
2018-11-28T04:21:08.944Z,18.33
2018-11-28T04:24:12.436Z,18.83
2018-11-28T04:27:16.003Z,18.33
2018-11-28T04:30:21.602Z,18.07
2018-11-28T04:33:25.180Z,17.20
2018-11-28T04:36:28.824Z,18.83
2018-11-28T04:39:32.464Z,17.83
2018-11-28T04:42:36.216Z,17.50
2018-11-28T04:45:39.727Z,18.03
2018-11-28T04:48:43.542Z,18.73
2018-11-28T04:51:47.094Z,19.37
2018-11-28T04:54:50.729Z,18.43
2018-11-28T04:57:54.385Z,19.70
2018-11-28T05:00:58.162Z,18.70
2018-11-28T05:04:01.807Z,19.17
2018-11-28T05:07:36.056Z,19.33
2018-11-28T05:10:39.800Z,18.90
2018-11-28T05:13:43.467Z,20.13
2018-11-28T05:16:47.184Z,18.60
2018-11-28T05:19:50.832Z,18.30
2018-11-28T05:22:54.566Z,18.17
2018-11-28T05:25:58.793Z,19.73
2018-11-28T05:29:02.409Z,18.10
2018-11-28T05:32:06.995Z,17.40
2018-11-28T05:35:12.034Z,19.47
2018-11-28T05:38:16.529Z,18.57
2018-11-28T05:41:20.096Z,17.97
2018-11-28T05:44:23.685Z,18.30
2018-11-28T05:47:27.248Z,18.10
2018-11-28T05:50:30.733Z,18.90
2018-11-28T05:53:34.380Z,18.53
2018-11-28T05:56:37.899Z,18.33
2018-11-28T05:59:41.405Z,19.63
2018-11-28T06:02:44.871Z,18.57
2018-11-28T06:05:48.836Z,18.90
2018-11-28T06:08:52.303Z,18.83
2018-11-28T06:11:56.882Z,18.37
2018-11-28T06:15:01.665Z,17.37
2018-11-28T06:18:05.774Z,18.93
2018-11-28T06:21:09.416Z,17.30
2018-11-28T06:24:13.023Z,18.40
2018-11-28T06:27:16.694Z,18.10
2018-11-28T06:30:21.052Z,19.30
2018-11-28T06:33:24.563Z,17.37
2018-11-28T06:36:27.979Z,17.70
2018-11-28T06:39:31.566Z,17.33
2018-11-28T06:42:35.251Z,18.67
2018-11-28T06:45:38.630Z,18.63
2018-11-28T06:48:42.131Z,17.70
2018-11-28T06:51:45.643Z,17.07
2018-11-28T06:54:49.140Z,18.13
2018-11-28T06:57:52.950Z,16.27
2018-11-28T07:00:56.422Z,17.40
2018-11-28T07:03:59.971Z,17.53
2018-11-28T07:07:04.523Z,16.17
2018-11-28T07:10:10.814Z,16.40
2018-11-28T07:13:14.388Z,17.27
2018-11-28T07:16:18.002Z,17.43
2018-11-28T07:19:22.019Z,17.53
2018-11-28T07:22:25.626Z,18.30
2018-11-28T07:25:29.187Z,17.60
2018-11-28T07:28:32.711Z,17.43
2018-11-28T07:31:36.227Z,20.80
2018-11-28T07:34:39.738Z,21.27
2018-11-28T07:37:43.271Z,19.77
2018-11-28T07:40:46.812Z,18.37
2018-11-28T07:43:50.309Z,19.10
2018-11-28T07:46:53.738Z,18.07
2018-11-28T07:49:57.216Z,17.33
2018-11-28T07:53:00.686Z,17.67
2018-11-28T07:56:04.179Z,18.60
2018-11-28T07:59:07.779Z,17.93
2018-11-28T08:02:11.189Z,17.77
2018-11-28T08:05:14.648Z,17.57
2018-11-28T08:08:18.242Z,16.87
2018-11-28T08:11:21.861Z,16.87
2018-11-28T08:14:25.321Z,18.37
2018-11-28T08:17:29.979Z,17.97
2018-11-28T08:20:32.624Z,17.43
2018-11-28T08:23:36.260Z,16.77
2018-11-28T08:26:39.819Z,17.33
2018-11-28T08:29:43.213Z,18.37
2018-11-28T08:32:46.697Z,17.17
2018-11-28T08:35:50.121Z,16.87
2018-11-28T08:38:59.110Z,17.53
2018-11-28T08:42:03.706Z,16.73
2018-11-28T08:45:15.777Z,17.27
2018-11-28T08:48:21.999Z,17.23
2018-11-28T08:51:25.656Z,16.90
2018-11-28T08:54:28.998Z,17.83
2018-11-28T08:57:32.588Z,17.57
2018-11-28T09:00:36.726Z,17.10
2018-11-28T09:03:40.453Z,16.03
2018-11-28T09:06:44.001Z,16.90
2018-11-28T09:09:47.440Z,17.47
2018-11-28T09:12:51.456Z,17.20
2018-11-28T09:15:54.948Z,17.87
2018-11-28T09:18:58.711Z,17.40
2018-11-28T09:22:02.215Z,17.63
2018-11-28T09:25:06.942Z,17.67
2018-11-28T09:28:10.399Z,16.60
2018-11-28T09:31:13.992Z,17.00
2018-11-28T09:34:17.492Z,18.23
2018-11-28T09:37:21.125Z,17.90
2018-11-28T09:40:26.624Z,16.97
2018-11-28T09:43:30.311Z,17.20
2018-11-28T09:46:33.788Z,16.60
2018-11-28T09:49:37.293Z,18.23
2018-11-28T09:52:40.868Z,16.53
2018-11-28T09:55:44.548Z,17.23
2018-11-28T09:58:48.137Z,16.93
2018-11-28T10:01:51.654Z,16.70
2018-11-28T10:04:55.131Z,18.67
2018-11-28T10:07:58.654Z,16.87
2018-11-28T10:11:02.369Z,17.80
2018-11-28T10:14:06.133Z,17.80
2018-11-28T10:17:09.629Z,17.97
2018-11-28T10:20:14.113Z,17.10
2018-11-28T10:23:17.663Z,18.17
2018-11-28T10:26:22.388Z,18.03
2018-11-28T10:29:25.857Z,17.97
2018-11-28T10:32:29.198Z,18.50
2018-11-28T10:35:32.633Z,17.00
2018-11-28T10:38:36.131Z,16.87
2018-11-28T10:41:39.687Z,16.73
2018-11-28T10:44:43.360Z,17.07
2018-11-28T10:47:46.846Z,17.33
2018-11-28T10:50:50.248Z,17.43
2018-11-28T10:53:53.912Z,17.43
2018-11-28T10:56:57.228Z,17.70
2018-11-28T11:00:00.759Z,18.37
2018-11-28T11:03:10.543Z,17.47
2018-11-28T11:06:19.375Z,17.63
2018-11-28T11:09:28.399Z,18.07
2018-11-28T11:12:37.322Z,18.23
2018-11-28T11:15:40.776Z,18.27
2018-11-28T11:18:44.290Z,17.80
2018-11-28T11:21:47.740Z,16.87
2018-11-28T11:24:51.395Z,18.03
2018-11-28T11:27:55.141Z,18.47
2018-11-28T11:30:58.762Z,17.93
2018-11-28T11:34:02.354Z,17.70
2018-11-28T11:37:06.385Z,16.77
2018-11-28T11:40:12.176Z,17.40
2018-11-28T11:43:15.730Z,17.30
2018-11-28T11:46:19.159Z,18.20
2018-11-28T11:49:22.589Z,17.03
2018-11-28T11:52:26.199Z,18.57
2018-11-28T11:55:29.785Z,17.63
2018-11-28T11:58:33.349Z,17.17
2018-11-28T12:01:37.064Z,17.53
2018-11-28T12:04:40.418Z,16.93
2018-11-28T12:07:43.904Z,17.70
2018-11-28T12:10:47.379Z,16.73
2018-11-28T12:13:50.944Z,17.50
2018-11-28T12:16:54.420Z,15.90
2018-11-28T12:19:57.953Z,17.17
2018-11-28T12:23:01.422Z,17.10
2018-11-28T12:26:05.029Z,17.10
2018-11-28T12:29:08.613Z,17.87
2018-11-28T12:32:12.128Z,17.07
2018-11-28T12:35:17.045Z,16.93
2018-11-28T12:38:20.639Z,17.73
2018-11-28T12:41:24.297Z,17.13
2018-11-28T12:44:27.799Z,16.47
2018-11-28T12:47:31.210Z,16.90
2018-11-28T12:50:34.692Z,17.43
2018-11-28T12:53:38.230Z,17.03
2018-11-28T12:56:41.852Z,17.07
2018-11-28T12:59:45.323Z,17.83
2018-11-28T13:02:48.764Z,17.30
2018-11-28T13:05:52.198Z,17.53
2018-11-28T13:08:55.799Z,17.57
2018-11-28T13:12:00.087Z,17.27
2018-11-28T13:15:02.902Z,16.83
2018-11-28T13:18:07.976Z,16.30
2018-11-28T13:21:12.394Z,17.40
2018-11-28T13:24:15.881Z,16.80
2018-11-28T13:27:19.416Z,18.30
2018-11-28T13:30:23.722Z,17.47
2018-11-28T13:33:27.286Z,17.10
2018-11-28T13:36:30.782Z,16.37
2018-11-28T13:39:34.186Z,16.70
2018-11-28T13:42:38.574Z,17.03
2018-11-28T13:45:44.611Z,16.17
2018-11-28T13:48:48.316Z,17.13
2018-11-28T13:51:51.920Z,17.03
2018-11-28T13:58:07.165Z,17.07
2018-11-28T14:01:10.940Z,17.50
2018-11-28T14:04:14.478Z,16.40
2018-11-28T14:07:18.857Z,16.50
2018-11-28T14:10:22.369Z,16.30
2018-11-28T14:13:29.910Z,15.90
2018-11-28T14:16:34.466Z,16.43
2018-11-28T14:19:38.921Z,17.27
2018-11-28T14:22:42.512Z,16.13
2018-11-28T14:25:46.120Z,16.93
2018-11-28T14:28:49.840Z,15.77
2018-11-28T14:31:53.397Z,15.20
2018-11-28T14:34:56.962Z,16.83
2018-11-28T14:38:00.807Z,16.23
2018-11-28T14:41:04.350Z,16.03
2018-11-28T14:44:07.878Z,15.93
2018-11-28T14:47:11.364Z,15.83
2018-11-28T14:50:17.723Z,15.70
2018-11-28T14:53:21.570Z,15.90
2018-11-28T14:56:25.102Z,15.47
2018-11-28T14:59:28.597Z,15.67
2018-11-28T15:02:32.108Z,15.70
2018-11-28T15:05:48.597Z,15.67
2018-11-28T15:08:52.469Z,16.83
2018-11-28T15:11:56.043Z,16.30
2018-11-28T15:14:59.605Z,16.47
2018-11-28T15:18:03.044Z,15.57
2018-11-28T15:21:07.872Z,15.47
2018-11-28T15:24:11.517Z,15.37
2018-11-28T15:27:15.016Z,15.40
2018-11-28T15:30:18.582Z,16.37
2018-11-28T15:33:22.144Z,17.20
2018-11-28T15:36:25.755Z,18.37
2018-11-28T15:39:29.303Z,22.23
2018-11-28T15:42:32.907Z,17.60
2018-11-28T15:45:36.423Z,15.30
2018-11-28T15:48:39.985Z,16.13
2018-11-28T15:51:43.435Z,17.37
2018-11-28T15:54:47.017Z,15.53
2018-11-28T15:57:50.605Z,16.40
2018-11-28T16:00:54.116Z,15.67
2018-11-28T16:03:57.732Z,17.10
2018-11-28T16:07:01.159Z,18.63
2018-11-28T16:10:10.480Z,17.47
2018-11-28T16:13:16.507Z,15.67
2018-11-28T16:16:20.098Z,16.47
2018-11-28T16:19:23.666Z,16.83
2018-11-28T16:22:27.205Z,15.60
2018-11-28T16:25:30.772Z,18.90
2018-11-28T16:28:34.377Z,18.07
2018-11-28T16:31:38.029Z,16.10
2018-11-28T16:34:41.691Z,15.33
2018-11-28T16:37:45.313Z,13.67
2018-11-28T16:40:49.059Z,13.97
2018-11-28T16:43:52.591Z,14.47
2018-11-28T16:46:56.185Z,15.17
2018-11-28T16:49:59.845Z,14.57
2018-11-28T16:53:03.382Z,15.60
2018-11-28T16:56:26.137Z,15.03
2018-11-28T16:59:30.826Z,15.33
2018-11-28T17:02:34.466Z,14.00
2018-11-28T17:05:38.263Z,14.47
2018-11-28T17:08:42.948Z,13.70
2018-11-28T17:11:46.503Z,16.83
2018-11-28T17:14:51.233Z,14.67
2018-11-28T17:17:54.991Z,13.00
2018-11-28T17:20:58.551Z,14.00
2018-11-28T17:24:02.300Z,14.47
2018-11-28T17:27:06.016Z,15.03
2018-11-28T17:30:12.855Z,15.90
2018-11-28T17:33:16.495Z,16.17
2018-11-28T17:36:20.093Z,15.80
2018-11-28T17:39:23.680Z,14.80
2018-11-28T17:42:27.459Z,14.50
2018-11-28T17:45:31.294Z,15.63
2018-11-28T17:48:34.998Z,13.80
2018-11-28T17:51:38.713Z,14.73
2018-11-28T17:54:43.314Z,13.83
2018-11-28T17:57:47.255Z,14.10
2018-11-28T18:00:50.918Z,14.80
2018-11-28T18:03:55.922Z,16.43
2018-11-28T18:06:59.502Z,14.77
2018-11-28T18:10:03.175Z,14.83
2018-11-28T18:13:10.693Z,14.50
2018-11-28T18:16:14.398Z,15.27
2018-11-28T18:19:17.935Z,13.40
2018-11-28T18:22:21.511Z,13.97
2018-11-28T18:25:26.280Z,13.00
2018-11-28T18:28:29.851Z,12.87
2018-11-28T18:31:34.471Z,13.50
2018-11-28T18:34:38.052Z,14.30
2018-11-28T18:37:41.613Z,13.83
2018-11-28T18:40:45.200Z,14.27
2018-11-28T18:43:48.713Z,13.40
2018-11-28T18:46:52.338Z,13.37
2018-11-28T18:49:55.989Z,13.77
2018-11-28T18:52:59.578Z,13.10
2018-11-28T18:56:03.105Z,15.73
2018-11-28T18:59:06.689Z,13.53
2018-11-28T19:02:11.320Z,13.90
2018-11-28T19:05:14.882Z,13.47
2018-11-28T19:08:18.321Z,13.10
2018-11-28T19:11:22.126Z,13.17
2018-11-28T19:14:25.840Z,13.47
2018-11-28T19:17:29.465Z,13.43
2018-11-28T19:20:33.115Z,12.93
2018-11-28T19:23:36.639Z,13.83
2018-11-28T19:26:40.055Z,13.23
2018-11-28T19:29:43.504Z,13.17
2018-11-28T19:32:47.268Z,13.40
2018-11-28T19:35:50.963Z,13.73
2018-11-28T19:38:54.631Z,14.20
2018-11-28T19:41:58.359Z,13.80
2018-11-28T19:45:01.907Z,14.40
2018-11-28T19:48:06.369Z,13.63
2018-11-28T19:51:09.930Z,13.50
2018-11-28T19:54:13.471Z,13.70
2018-11-28T19:57:19.253Z,14.53
2018-11-28T20:00:23.517Z,14.53
2018-11-28T20:03:27.319Z,14.30
2018-11-28T20:06:30.764Z,13.93
2018-11-28T20:09:34.372Z,14.13
2018-11-28T20:12:38.350Z,16.93
2018-11-28T20:15:43.929Z,14.53
2018-11-28T20:18:47.403Z,14.23
2018-11-28T20:21:51.064Z,15.40
2018-11-28T20:24:54.688Z,14.90
2018-11-28T20:27:59.434Z,15.03
2018-11-28T20:31:03.040Z,15.10
2018-11-28T20:34:06.505Z,14.83
2018-11-28T20:37:10.041Z,14.17
2018-11-28T20:40:14.820Z,13.93
2018-11-28T20:43:18.371Z,14.80
2018-11-28T20:46:21.993Z,13.50
2018-11-28T20:49:25.584Z,13.37
2018-11-28T20:52:29.070Z,14.60
2018-11-28T20:55:32.816Z,14.23
2018-11-28T20:58:36.337Z,14.13
2018-11-28T21:01:39.955Z,15.07
2018-11-28T21:04:43.797Z,15.07
2018-11-28T21:07:47.461Z,14.70
2018-11-28T21:10:51.066Z,14.70
2018-11-28T21:13:54.547Z,14.80
2018-11-28T21:16:57.952Z,14.40
2018-11-28T21:20:01.522Z,14.07
2018-11-28T21:23:08.185Z,14.47
2018-11-28T21:26:11.878Z,15.10
2018-11-28T21:29:15.494Z,13.50
2018-11-28T21:32:19.101Z,14.53
2018-11-28T21:35:28.839Z,15.40
2018-11-28T21:38:32.306Z,14.13
2018-11-28T21:41:36.829Z,14.47
2018-11-28T21:44:40.337Z,14.93
2018-11-28T21:47:43.942Z,14.30
2018-11-28T21:50:47.534Z,13.83
2018-11-28T21:53:51.196Z,15.03
2018-11-28T21:56:54.809Z,15.70
2018-11-28T21:59:58.258Z,13.87
2018-11-28T22:03:01.897Z,15.03
2018-11-28T22:06:05.374Z,15.00
2018-11-28T22:09:09.677Z,15.97
2018-11-28T22:12:13.169Z,14.60
2018-11-28T22:15:17.631Z,13.63
2018-11-28T22:18:23.151Z,14.13
2018-11-28T22:21:26.942Z,14.77
2018-11-28T22:24:30.447Z,14.13
2018-11-28T22:27:35.050Z,14.33
2018-11-28T22:30:39.149Z,14.70
2018-11-28T22:33:42.835Z,15.53
2018-11-28T22:36:46.502Z,15.20
2018-11-28T22:39:50.156Z,14.27
2018-11-28T22:42:54.327Z,15.00
2018-11-28T22:45:58.115Z,14.63
2018-11-28T22:49:01.727Z,15.00
2018-11-28T22:52:05.637Z,15.17
2018-11-28T22:55:14.177Z,15.17
2018-11-28T22:58:17.815Z,15.33
2018-11-28T23:01:32.615Z,14.83
2018-11-28T23:04:36.190Z,15.23
2018-11-28T23:07:40.790Z,15.13
2018-11-28T23:10:45.507Z,14.73
2018-11-28T23:13:49.148Z,14.70
2018-11-28T23:16:52.805Z,15.53
2018-11-28T23:19:56.467Z,15.37
2018-11-28T23:23:00.105Z,16.00
2018-11-28T23:26:03.688Z,15.23
2018-11-28T23:29:07.310Z,15.00
2018-11-28T23:32:10.896Z,15.23
2018-11-28T23:35:14.407Z,14.73
2018-11-28T23:38:18.100Z,15.30
2018-11-28T23:41:21.696Z,15.13
2018-11-28T23:44:25.478Z,16.03
2018-11-28T23:47:29.167Z,14.73
2018-11-28T23:50:32.758Z,15.43
2018-11-28T23:53:36.468Z,15.30
2018-11-28T23:56:40.190Z,16.90
2018-11-28T23:59:43.800Z,15.23
